Details From EDLP - Paderborn Lippstadt
To EDLW - Dortmund-Wickede
Flight Number -
Tags decoded
Created
Modified
Stats Distance 38 nm / 70 km
Max Altitude 0 ft / 0 m
Waypoints 2
Social Downloads 0
Likes 0
Share VATSIM

Download

Looking for another format? Having issues loading an existing format? Contact us
Advertisement - Login to hide

Notes

Requested: EDLP EDLW

Route

EDLP EDLW

ID Type Via Altitude Latitude Longitude Leg Dist Tot Dist Heading (true) Name
O EDLP APT - 0 ft / 0 m 51.61417˚ 8.61634˚ - 0 nm - Paderborn Lippstadt
O EDLW APT - 0 ft / 0 m 51.51911˚ 7.61445˚ 37 nm 37 nm 262° / 261° Dortmund-Wickede

Altitude Profile

Advertisement - Login to hide

EDLP

Details ICAO EDLP (PAD)
Name Paderborn Lippstadt
Region Germany - Civil
Timezone Europe/Berlin (UTC+1.0)
Stats Elevation 699 ft / 213 m (AMSL)
Location 51.614166° 8.616336°
Runways 1
Magnetic Variation 2.356° E

METAR

EDLP 121150Z 25014KT 230V290 9999 -RASN BKN011 02/00 Q1004

Decode

TAF

TAF TAF EDLP 121100Z 1212/1312 25015G25KT 6000 SCT007 BKN015 TEMPO 1212/1216 3000 SHSNRA BKN008TCU BECMG 1215/1218 20010KT TEMPO 1310/1312 21015G25KT

Decode

Departure Runways

ID Width Length Bearing (true) Bearing (mag) Surface Threshold Offset Overrun Length
06 148 ft / 45 m 7,136 ft / 2,175 m 57.28° 54.92° Asphalt 0 ft / 0 m 1,066 ft / 325 m
24 148 ft / 45 m 7,136 ft / 2,175 m 237.30° 234.94° Asphalt 0 ft / 0 m 397 ft / 121 m

EDLW

Details ICAO EDLW (DTM)
Name Dortmund-Wickede
Region Germany - Civil
Timezone Europe/Berlin (UTC+1.0)
Stats Elevation 425 ft / 130 m (AMSL)
Location 51.519107° 7.614447°
Runways 1
Magnetic Variation 2.057° E

METAR

EDLW 121150Z 25012KT 220V280 9999 OVC010 02/M00 Q1006

Decode

TAF

TAF EDLW 121100Z 1212/1312 23011KT 9999 BKN010 TEMPO 1212/1214 25015G25KT 4000 SHRASN BKN008CB BECMG 1212/1215 BKN015 BECMG 1303/1306 19020G30KT

Decode

Destination Runways

ID Width Length Bearing (true) Bearing (mag) Surface Threshold Offset Overrun Length
06 148 ft / 45 m 6,546 ft / 1,995 m 60.50° 58.44° Asphalt 984 ft / 300 m 197 ft / 60 m
24 148 ft / 45 m 6,546 ft / 1,995 m 240.52° 238.46° Asphalt 984 ft / 300 m 197 ft / 60 m

Approach Navaids

Runway Type Ident Frequency Range Bearing (true) Bearing (mag) Slope Elevation
06 Localiser IDWE 109.15 MHz 18 nm / 33 km 60.52° 58.47° - 425 ft / 130 m (AMSL)
06 Glidescope IDWE 109.15 MHz 10 nm / 19 km 60.51° 58.46° 3.00° 425 ft / 130 m (AMSL)
24 Localiser IDWW 110.30 MHz 18 nm / 33 km 240.49° 238.44° - 425 ft / 130 m (AMSL)
24 Glidescope IDWW 110.30 MHz 10 nm / 19 km 240.51° 238.46° 3.00° 425 ft / 130 m (AMSL)

Popular Alternatives